createdAt,value
2023-04-11T00:01:27.324Z,101395.25
2023-04-11T00:03:55.923Z,101387.84
2023-04-11T00:06:26.964Z,101398.56
2023-04-11T00:08:55.591Z,101405.19
2023-04-11T00:11:24.209Z,101393.47
2023-04-11T00:13:52.605Z,101399.47
2023-04-11T00:16:21.425Z,101389.06
2023-04-11T00:18:49.736Z,101399.28
2023-04-11T00:21:18.332Z,101390.03
2023-04-11T00:23:46.762Z,101386.78
2023-04-11T00:26:15.082Z,101388.00
2023-04-11T00:28:43.528Z,101392.53
2023-04-11T00:31:13.292Z,101394.69
2023-04-11T00:33:41.652Z,101389.56
2023-04-11T00:36:10.524Z,101396.66
2023-04-11T00:38:39.144Z,101398.84
2023-04-11T00:41:07.693Z,101391.31
2023-04-11T00:43:36.015Z,101396.78
2023-04-11T00:46:05.600Z,101398.09
2023-04-11T00:48:34.074Z,101393.47
2023-04-11T00:51:02.778Z,101400.53
2023-04-11T00:53:33.703Z,101404.91
2023-04-11T00:56:02.085Z,101413.50
2023-04-11T00:58:30.488Z,101418.25
2023-04-11T01:00:58.739Z,101427.47
2023-04-11T01:03:27.414Z,101421.44
2023-04-11T01:05:56.437Z,101420.91
2023-04-11T01:08:25.709Z,101428.97
2023-04-11T01:10:54.250Z,101428.38
2023-04-11T01:13:22.740Z,101429.16
2023-04-11T01:15:51.129Z,101439.09
2023-04-11T01:18:19.595Z,101455.44
2023-04-11T01:20:48.216Z,101452.47
2023-04-11T01:23:22.936Z,101444.94
2023-04-11T01:25:51.859Z,101451.06
2023-04-11T01:28:23.460Z,101451.00
2023-04-11T01:30:52.037Z,101452.28
2023-04-11T01:33:20.728Z,101438.56
2023-04-11T01:35:49.319Z,101431.59
2023-04-11T01:38:17.782Z,101433.06
2023-04-11T01:40:47.345Z,101440.44
2023-04-11T01:43:15.743Z,101443.25
2023-04-11T01:45:44.024Z,101440.78
2023-04-11T01:48:12.636Z,101452.75
2023-04-11T01:50:40.953Z,101447.22
2023-04-11T01:53:09.449Z,101445.91
2023-04-11T01:55:37.799Z,101447.75
2023-04-11T01:58:06.129Z,101452.63
2023-04-11T02:00:34.510Z,101464.69
2023-04-11T02:03:02.900Z,101456.31
2023-04-11T02:05:31.346Z,101462.16
2023-04-11T02:07:59.711Z,101461.78
2023-04-11T02:10:28.028Z,101454.56
2023-04-11T02:12:56.272Z,101446.19
2023-04-11T02:15:24.728Z,101455.56
2023-04-11T02:17:54.776Z,101452.50
2023-04-11T02:20:24.054Z,101449.97
2023-04-11T02:22:52.335Z,101452.69
2023-04-11T02:25:20.716Z,101450.25
2023-04-11T02:27:49.001Z,101453.41
2023-04-11T02:30:17.280Z,101459.41
2023-04-11T02:32:47.601Z,101465.91
2023-04-11T02:35:16.468Z,101471.19
2023-04-11T02:37:45.241Z,101478.41
2023-04-11T02:40:13.672Z,101484.00
2023-04-11T02:42:43.936Z,101487.81
2023-04-11T02:45:12.746Z,101493.38
2023-04-11T02:47:41.366Z,101490.06
2023-04-11T02:50:10.299Z,101489.59
2023-04-11T02:52:42.979Z,101491.06
2023-04-11T02:55:11.457Z,101496.91
2023-04-11T02:57:40.197Z,101498.97
2023-04-11T03:00:09.911Z,101497.97
2023-04-11T03:02:38.412Z,101500.59
2023-04-11T03:05:07.296Z,101507.00
2023-04-11T03:07:35.689Z,101500.16
2023-04-11T03:10:03.950Z,101506.50
2023-04-11T03:12:32.237Z,101508.44
2023-04-11T03:15:00.521Z,101508.50
2023-04-11T03:17:28.822Z,101521.13
2023-04-11T03:19:57.090Z,101522.13
2023-04-11T03:22:25.584Z,101537.38
2023-04-11T03:24:53.853Z,101535.63
2023-04-11T03:27:22.088Z,101551.53
2023-04-11T03:29:50.364Z,101558.72
2023-04-11T03:32:18.648Z,101568.31
2023-04-11T03:34:47.357Z,101583.38
2023-04-11T03:37:15.628Z,101583.41
2023-04-11T03:39:43.880Z,101586.91
2023-04-11T03:42:13.539Z,101603.91
2023-04-11T03:44:41.877Z,101601.34
2023-04-11T03:47:10.165Z,101612.00
2023-04-11T03:49:38.441Z,101623.41
2023-04-11T03:52:08.466Z,101637.44
2023-04-11T03:54:38.442Z,101645.44
2023-04-11T03:57:06.708Z,101645.44
2023-04-11T03:59:34.935Z,101656.88
2023-04-11T04:02:03.284Z,101666.50
2023-04-11T04:04:33.195Z,101667.44
2023-04-11T04:07:02.576Z,101670.97
2023-04-11T04:09:30.893Z,101679.97
2023-04-11T04:11:59.156Z,101675.59
2023-04-11T04:14:27.842Z,101686.25
2023-04-11T04:16:56.153Z,101685.44
2023-04-11T04:19:24.483Z,101689.00
2023-04-11T04:21:52.732Z,101691.72
2023-04-11T04:24:20.991Z,101691.63
2023-04-11T04:26:50.898Z,101689.75
2023-04-11T04:29:19.339Z,101696.81
2023-04-11T04:31:51.449Z,101703.75
2023-04-11T04:34:22.582Z,101711.75
2023-04-11T04:36:50.852Z,101710.88
2023-04-11T04:39:20.342Z,101712.56
2023-04-11T04:41:49.949Z,101717.00
2023-04-11T04:44:18.335Z,101725.81
2023-04-11T04:46:46.659Z,101733.69
2023-04-11T04:49:14.979Z,101722.00
2023-04-11T04:51:43.292Z,101733.41
2023-04-11T04:54:11.557Z,101736.81
2023-04-11T04:56:39.898Z,101746.47
2023-04-11T04:59:08.950Z,101744.34
2023-04-11T05:01:40.709Z,101742.31
2023-04-11T05:04:09.329Z,101751.91
2023-04-11T05:06:37.799Z,101752.66
2023-04-11T05:09:07.043Z,101743.84
2023-04-11T05:11:35.453Z,101753.78
2023-04-11T05:14:03.750Z,101752.13
2023-04-11T05:16:32.545Z,101750.31
2023-04-11T05:19:00.894Z,101753.13
2023-04-11T05:21:29.408Z,101738.19
2023-04-11T05:23:57.853Z,101742.75
2023-04-11T05:26:26.519Z,101747.28
2023-04-11T05:28:54.782Z,101741.94
2023-04-11T05:31:23.066Z,101747.47
2023-04-11T05:33:51.356Z,101756.50
2023-04-11T05:36:19.813Z,101753.97
2023-04-11T05:38:48.416Z,101753.16
2023-04-11T05:41:16.746Z,101753.28
2023-04-11T05:43:45.073Z,101756.94
2023-04-11T05:46:13.738Z,101757.88
2023-04-11T05:48:42.393Z,101754.34
2023-04-11T05:51:10.695Z,101758.94
2023-04-11T05:53:38.936Z,101759.09
2023-04-11T05:56:07.648Z,101756.53
2023-04-11T05:58:37.849Z,101752.28
2023-04-11T06:01:08.149Z,101742.47
2023-04-11T06:03:36.682Z,101742.44
2023-04-11T06:06:05.214Z,101737.06
2023-04-11T06:08:33.585Z,101729.06
2023-04-11T06:11:01.837Z,101732.56
2023-04-11T06:13:30.171Z,101732.63
2023-04-11T06:15:58.559Z,101733.53
2023-04-11T06:18:26.972Z,101736.28
2023-04-11T06:20:56.179Z,101736.41
2023-04-11T06:23:24.566Z,101751.59
2023-04-11T06:25:53.233Z,101750.72
2023-04-11T06:28:21.590Z,101749.00
2023-04-11T06:30:49.915Z,101742.88
2023-04-11T06:33:18.125Z,101747.44
2023-04-11T06:35:46.500Z,101743.97
2023-04-11T06:38:14.821Z,101752.09
2023-04-11T06:40:43.122Z,101753.13
2023-04-11T06:43:11.651Z,101752.28
2023-04-11T06:45:39.858Z,101752.28
2023-04-11T06:48:08.178Z,101755.81
2023-04-11T06:50:42.632Z,101751.31
2023-04-11T06:53:11.705Z,101750.34
2023-04-11T06:55:39.920Z,101751.22
2023-04-11T06:58:08.128Z,101752.13
2023-04-11T07:00:37.029Z,101757.44
2023-04-11T07:03:09.198Z,101761.00
2023-04-11T07:05:39.459Z,101761.81
2023-04-11T07:08:07.924Z,101763.56
2023-04-11T07:10:36.125Z,101759.03
2023-04-11T07:13:04.330Z,101759.81
2023-04-11T07:15:32.530Z,101777.47
2023-04-11T07:18:00.860Z,101765.84
2023-04-11T07:20:29.265Z,101770.13
2023-04-11T07:22:58.084Z,101778.06
2023-04-11T07:25:34.523Z,101768.31
2023-04-11T07:28:03.274Z,101772.66
2023-04-11T07:30:31.499Z,101770.84
2023-04-11T07:32:59.780Z,101768.13
2023-04-11T07:35:29.334Z,101767.25
2023-04-11T07:37:59.347Z,101768.22
2023-04-11T07:40:28.012Z,101771.75
2023-04-11T07:42:56.204Z,101768.31
2023-04-11T07:45:24.537Z,101770.06
2023-04-11T07:47:52.797Z,101770.00
2023-04-11T07:50:21.158Z,101766.41
2023-04-11T07:52:49.369Z,101760.22
2023-04-11T07:55:17.823Z,101765.47
2023-04-11T07:57:46.568Z,101769.00
2023-04-11T08:00:24.771Z,101771.66
2023-04-11T08:02:53.421Z,101774.34
2023-04-11T08:05:22.126Z,101770.84
2023-04-11T08:07:50.347Z,101776.25
2023-04-11T08:10:18.777Z,101779.78
2023-04-11T08:12:47.152Z,101776.19
2023-04-11T08:15:15.456Z,101775.31
2023-04-11T08:17:44.566Z,101769.00
2023-04-11T08:20:14.800Z,101776.00
2023-04-11T08:22:45.603Z,101770.59
2023-04-11T08:25:15.508Z,101766.13
2023-04-11T08:27:44.062Z,101763.50
2023-04-11T08:30:12.657Z,101767.88
2023-04-11T08:32:42.023Z,101762.50
2023-04-11T08:35:11.135Z,101768.66
2023-04-11T08:37:40.761Z,101762.34
2023-04-11T08:40:10.817Z,101762.19
2023-04-11T08:42:39.020Z,101760.41
2023-04-11T08:45:09.458Z,101757.81
2023-04-11T08:47:38.870Z,101759.56
2023-04-11T08:50:08.017Z,101758.69
2023-04-11T08:52:39.351Z,101765.75
2023-04-11T08:55:07.864Z,101766.59
2023-04-11T08:57:38.966Z,101763.06
2023-04-11T09:00:15.407Z,101761.16
2023-04-11T09:03:04.197Z,101757.47
2023-04-11T09:05:33.547Z,101758.22
2023-04-11T09:08:07.584Z,101751.16
2023-04-11T09:10:36.843Z,101749.34
2023-04-11T09:13:26.885Z,101756.41
2023-04-11T09:16:13.164Z,101762.66
2023-04-11T09:18:46.347Z,101763.69
2023-04-11T09:21:16.845Z,101761.09
2023-04-11T09:23:45.672Z,101758.47
2023-04-11T09:26:26.029Z,101759.41
2023-04-11T09:28:54.447Z,101755.03
2023-04-11T09:31:40.502Z,101750.50
2023-04-11T09:34:09.052Z,101749.50
2023-04-11T09:36:37.252Z,101752.09
2023-04-11T09:39:20.919Z,101750.28
2023-04-11T09:41:49.327Z,101747.56
2023-04-11T09:44:17.535Z,101744.88
2023-04-11T09:46:58.942Z,101748.44
2023-04-11T09:49:27.355Z,101740.41
2023-04-11T09:51:57.186Z,101737.69
2023-04-11T09:54:28.258Z,101727.94
2023-04-11T09:56:58.206Z,101726.22
2023-04-11T09:59:28.613Z,101733.34
2023-04-11T10:01:58.790Z,101728.81
2023-04-11T10:04:28.865Z,101726.16
2023-04-11T10:07:19.287Z,101719.94
2023-04-11T10:09:48.761Z,101717.22
2023-04-11T10:12:34.820Z,101708.34
2023-04-11T10:15:09.567Z,101708.41
2023-04-11T10:17:38.096Z,101706.56
2023-04-11T10:20:44.222Z,101700.28
2023-04-11T10:23:13.457Z,101699.41
2023-04-11T10:26:02.095Z,101705.59
2023-04-11T10:28:41.072Z,101698.53
2023-04-11T10:31:13.993Z,101689.63
2023-04-11T10:34:17.750Z,101700.28
2023-04-11T10:37:08.529Z,101694.97
2023-04-11T10:39:54.872Z,101696.63
2023-04-11T10:42:32.998Z,101689.44
2023-04-11T10:45:23.015Z,101694.72
2023-04-11T10:48:13.911Z,101681.34
2023-04-11T10:50:44.744Z,101683.97
2023-04-11T10:53:37.753Z,101681.34
2023-04-11T10:56:06.484Z,101679.69
2023-04-11T10:58:40.437Z,101671.69
2023-04-11T11:01:26.506Z,101662.78
2023-04-11T11:04:06.134Z,101644.13
2023-04-11T11:06:46.084Z,101648.59
2023-04-11T11:09:24.539Z,101649.63
2023-04-11T11:12:12.500Z,101656.00
2023-04-11T11:14:46.401Z,101661.47
2023-04-11T11:17:16.213Z,101668.75
2023-04-11T11:19:48.940Z,101667.03
2023-04-11T11:22:26.750Z,101667.91
2023-04-11T11:24:54.978Z,101672.28
2023-04-11T11:27:25.124Z,101669.63
2023-04-11T11:29:54.067Z,101677.63
2023-04-11T11:32:33.597Z,101669.63
2023-04-11T11:35:13.138Z,101674.94
2023-04-11T11:37:41.677Z,101666.94
2023-04-11T11:40:14.691Z,101671.34
2023-04-11T11:42:43.330Z,101669.50
2023-04-11T11:45:22.696Z,101665.03
2023-04-11T11:47:51.662Z,101665.91
2023-04-11T11:50:45.888Z,101666.75
2023-04-11T11:53:16.794Z,101672.94
2023-04-11T11:55:45.201Z,101667.56
2023-04-11T11:58:13.436Z,101670.28
2023-04-11T12:00:42.568Z,101669.34
2023-04-11T12:03:11.643Z,101663.16
2023-04-11T12:05:39.980Z,101657.81
2023-04-11T12:08:08.645Z,101660.56
2023-04-11T12:10:46.769Z,101665.16
2023-04-11T12:13:20.805Z,101659.84
2023-04-11T12:15:57.060Z,101666.94
2023-04-11T12:18:26.382Z,101666.09
2023-04-11T12:20:54.726Z,101660.75
2023-04-11T12:23:23.657Z,101660.75
2023-04-11T12:25:51.914Z,101659.91
2023-04-11T12:28:20.125Z,101659.97
2023-04-11T12:30:49.534Z,101660.03
2023-04-11T12:33:17.936Z,101657.38
2023-04-11T12:35:46.864Z,101659.13
2023-04-11T12:38:17.562Z,101653.84
2023-04-11T12:40:47.790Z,101655.69
2023-04-11T12:43:16.354Z,101660.25
2023-04-11T12:45:44.598Z,101652.53
2023-04-11T12:48:12.856Z,101650.03
2023-04-11T12:50:41.768Z,101653.72
2023-04-11T12:53:10.023Z,101651.22
2023-04-11T12:55:38.728Z,101651.41
2023-04-11T12:58:09.029Z,101649.66
2023-04-11T13:00:37.228Z,101647.91
2023-04-11T13:03:05.718Z,101653.25
2023-04-11T13:05:34.209Z,101647.88
2023-04-11T13:08:02.567Z,101641.63
2023-04-11T13:10:30.777Z,101650.44
2023-04-11T13:13:08.487Z,101654.81
2023-04-11T13:15:45.454Z,101653.88
2023-04-11T13:18:13.802Z,101654.72
2023-04-11T13:20:43.496Z,101655.53
2023-04-11T13:23:11.719Z,101649.31
2023-04-11T13:25:39.919Z,101656.41
2023-04-11T13:28:08.327Z,101654.53
2023-04-11T13:30:36.534Z,101653.59
2023-04-11T13:33:04.969Z,101658.84
2023-04-11T13:35:33.190Z,101662.38
2023-04-11T13:38:01.695Z,101658.81
2023-04-11T13:40:29.939Z,101656.09
2023-04-11T13:42:58.164Z,101656.97
2023-04-11T13:45:26.425Z,101659.59
2023-04-11T13:47:54.680Z,101664.88
2023-04-11T13:50:22.898Z,101665.72
2023-04-11T13:52:51.727Z,101665.66
2023-04-11T13:55:20.090Z,101662.06
2023-04-11T13:57:48.519Z,101670.06
2023-04-11T14:00:17.211Z,101669.16
2023-04-11T14:02:45.673Z,101669.97
2023-04-11T14:05:14.050Z,101673.50
2023-04-11T14:07:42.572Z,101669.97
2023-04-11T14:10:11.170Z,101669.06
2023-04-11T14:12:39.626Z,101666.38
2023-04-11T14:15:08.750Z,101675.22
2023-04-11T14:17:37.221Z,101674.31
2023-04-11T14:20:07.771Z,101671.56
2023-04-11T14:22:36.748Z,101672.28
2023-04-11T14:25:06.338Z,101676.56
2023-04-11T14:27:34.528Z,101676.50
2023-04-11T14:30:02.896Z,101684.34
2023-04-11T14:32:31.103Z,101681.53
2023-04-11T14:35:02.360Z,101686.78
2023-04-11T14:37:31.126Z,101685.72
2023-04-11T14:39:59.479Z,101683.84
2023-04-11T14:42:27.822Z,101692.66
2023-04-11T14:44:56.053Z,101693.38
2023-04-11T14:47:24.353Z,101695.09
2023-04-11T14:49:52.554Z,101687.03
2023-04-11T14:52:20.866Z,101697.47
2023-04-11T14:54:49.648Z,101699.06
2023-04-11T14:57:18.080Z,101706.00
2023-04-11T14:59:46.694Z,101702.31
2023-04-11T15:02:15.072Z,101708.44
2023-04-11T15:04:43.375Z,101713.78
2023-04-11T15:07:11.603Z,101719.16
2023-04-11T15:09:39.824Z,101716.53
2023-04-11T15:12:08.073Z,101723.63
2023-04-11T15:14:36.259Z,101722.69
2023-04-11T15:17:04.468Z,101732.34
2023-04-11T15:19:32.657Z,101732.16
2023-04-11T15:22:00.921Z,101727.56
2023-04-11T15:24:29.232Z,101737.16
2023-04-11T15:26:57.692Z,101734.31
2023-04-11T15:29:26.404Z,101733.31
2023-04-11T15:31:54.590Z,101730.50
2023-04-11T15:34:24.202Z,101737.47
2023-04-11T15:36:52.484Z,101735.84
2023-04-11T15:39:20.752Z,101730.63
2023-04-11T15:41:48.966Z,101737.78
2023-04-11T15:44:17.302Z,101728.13
2023-04-11T15:46:48.516Z,101735.41
2023-04-11T15:49:17.634Z,101734.47
2023-04-11T15:51:47.546Z,101738.97
2023-04-11T15:54:15.768Z,101737.16
2023-04-11T15:56:43.993Z,101742.47
2023-04-11T15:59:12.373Z,101738.00
2023-04-11T16:01:41.099Z,101745.09
2023-04-11T16:04:10.094Z,101741.47
2023-04-11T16:06:38.774Z,101741.41
2023-04-11T16:09:06.984Z,101746.66
2023-04-11T16:11:35.258Z,101746.81
2023-04-11T16:14:03.499Z,101745.16
2023-04-11T16:16:32.036Z,101749.66
2023-04-11T16:19:00.685Z,101745.09
2023-04-11T16:21:28.864Z,101757.41
2023-04-11T16:23:57.503Z,101753.03
2023-04-11T16:26:25.951Z,101756.69
2023-04-11T16:28:54.331Z,101754.69
2023-04-11T16:31:25.499Z,101747.25
2023-04-11T16:33:55.169Z,101753.19
2023-04-11T16:36:24.063Z,101762.16
2023-04-11T16:38:52.492Z,101749.09
2023-04-11T16:41:20.740Z,101753.81
2023-04-11T16:43:49.006Z,101756.41
2023-04-11T16:46:17.445Z,101754.50
2023-04-11T16:48:46.061Z,101754.22
2023-04-11T16:51:14.510Z,101761.44
2023-04-11T16:53:42.781Z,101758.38
2023-04-11T16:56:11.452Z,101754.31
2023-04-11T16:58:39.787Z,101756.56
2023-04-11T17:01:08.205Z,101754.63
2023-04-11T17:03:36.665Z,101757.44
2023-04-11T17:06:05.340Z,101760.44
2023-04-11T17:08:33.584Z,101764.22
2023-04-11T17:11:09.949Z,101767.91
2023-04-11T17:13:42.912Z,101773.44
2023-04-11T17:16:11.313Z,101768.50
2023-04-11T17:18:39.680Z,101778.53
2023-04-11T17:21:08.297Z,101774.31
2023-04-11T17:23:43.154Z,101781.50
2023-04-11T17:26:12.553Z,101777.03
2023-04-11T17:28:41.871Z,101779.66
2023-04-11T17:31:14.527Z,101788.44
2023-04-11T17:33:43.564Z,101786.63
2023-04-11T17:36:14.595Z,101783.72
2023-04-11T17:38:46.419Z,101791.63
2023-04-11T17:41:15.651Z,101789.88
2023-04-11T17:43:44.996Z,101787.88
2023-04-11T17:46:14.501Z,101795.31
2023-04-11T17:48:43.008Z,101786.75
2023-04-11T17:51:11.324Z,101791.53
2023-04-11T17:53:39.656Z,101794.31
2023-04-11T17:56:08.509Z,101790.09
2023-04-11T17:58:36.849Z,101789.66
2023-04-11T18:01:10.342Z,101790.63
2023-04-11T18:03:40.500Z,101792.22
2023-04-11T18:06:09.340Z,101788.84
2023-04-11T18:08:50.546Z,101793.13
2023-04-11T18:11:20.147Z,101788.66
2023-04-11T18:13:50.271Z,101788.38
2023-04-11T18:16:19.315Z,101783.13
2023-04-11T18:18:49.350Z,101777.13
2023-04-11T18:21:18.422Z,101781.97
2023-04-11T18:23:46.822Z,101779.47
2023-04-11T18:26:15.071Z,101784.44
2023-04-11T18:28:43.319Z,101773.66
2023-04-11T18:31:12.479Z,101778.75
2023-04-11T18:33:44.036Z,101776.06
2023-04-11T18:36:28.156Z,101773.25
2023-04-11T18:38:56.847Z,101771.94
2023-04-11T18:41:26.108Z,101774.88
2023-04-11T18:43:54.462Z,101757.81
2023-04-11T18:46:22.800Z,101757.03
2023-04-11T18:48:51.309Z,101762.13
2023-04-11T18:51:20.982Z,101751.75
2023-04-11T18:53:49.994Z,101757.63
2023-04-11T18:56:18.453Z,101758.81
2023-04-11T18:58:50.074Z,101757.94
2023-04-11T19:01:22.752Z,101760.13
2023-04-11T19:03:51.951Z,101755.69
2023-04-11T19:06:20.444Z,101755.25
2023-04-11T19:08:49.138Z,101756.06
2023-04-11T19:11:17.528Z,101754.84
2023-04-11T19:13:45.728Z,101748.94
2023-04-11T19:16:14.285Z,101752.50
2023-04-11T19:18:42.548Z,101757.94
2023-04-11T19:21:10.970Z,101742.06
2023-04-11T19:23:39.548Z,101739.81
2023-04-11T19:26:08.332Z,101747.72
2023-04-11T19:28:37.116Z,101733.66
2023-04-11T19:31:05.599Z,101737.66
2023-04-11T19:33:34.058Z,101735.75
2023-04-11T19:36:02.699Z,101724.72
2023-04-11T19:38:31.371Z,101725.72
2023-04-11T19:41:10.140Z,101721.59
2023-04-11T19:43:38.647Z,101725.47
2023-04-11T19:46:10.404Z,101713.19
2023-04-11T19:48:41.136Z,101711.34
2023-04-11T19:51:10.334Z,101716.25
2023-04-11T19:53:39.809Z,101707.09
2023-04-11T19:56:11.726Z,101712.53
2023-04-11T19:58:40.878Z,101717.34
2023-04-11T20:01:10.526Z,101713.81
2023-04-11T20:03:39.032Z,101706.78
2023-04-11T20:06:08.350Z,101699.19
2023-04-11T20:08:38.967Z,101701.59
2023-04-11T20:11:07.366Z,101702.47
2023-04-11T20:13:36.836Z,101697.19
2023-04-11T20:16:09.406Z,101689.88
2023-04-11T20:18:37.704Z,101690.25
2023-04-11T20:21:08.433Z,101689.34
2023-04-11T20:23:37.930Z,101679.88
2023-04-11T20:26:06.437Z,101675.44
2023-04-11T20:28:34.660Z,101671.72
2023-04-11T20:31:05.085Z,101673.03
2023-04-11T20:33:33.418Z,101679.97
2023-04-11T20:36:03.648Z,101665.91
2023-04-11T20:38:32.227Z,101660.09
2023-04-11T20:41:04.481Z,101658.97
2023-04-11T20:43:32.966Z,101649.59
2023-04-11T20:46:01.226Z,101654.53
2023-04-11T20:48:30.590Z,101645.47
2023-04-11T20:51:02.610Z,101647.56
2023-04-11T20:53:30.963Z,101637.75
2023-04-11T20:55:59.468Z,101636.38
2023-04-11T20:58:28.442Z,101644.38
2023-04-11T21:00:56.829Z,101648.28
2023-04-11T21:03:25.213Z,101644.38
2023-04-11T21:05:53.523Z,101646.19
2023-04-11T21:08:21.727Z,101643.84
2023-04-11T21:10:49.942Z,101644.22
2023-04-11T21:13:18.189Z,101640.84
2023-04-11T21:15:46.565Z,101648.66
2023-04-11T21:18:14.926Z,101641.31
2023-04-11T21:20:43.198Z,101642.63
2023-04-11T21:23:11.518Z,101635.50
2023-04-11T21:25:39.748Z,101639.06
2023-04-11T21:28:08.080Z,101631.44
2023-04-11T21:30:36.549Z,101623.81
2023-04-11T21:33:04.840Z,101643.09
2023-04-11T21:35:33.170Z,101637.06
2023-04-11T21:38:01.696Z,101627.88
2023-04-11T21:40:29.971Z,101629.44
2023-04-11T21:42:58.281Z,101631.78
2023-04-11T21:45:26.714Z,101622.13
2023-04-11T21:47:55.006Z,101620.97
2023-04-11T21:50:23.401Z,101615.50
2023-04-11T21:52:53.351Z,101615.19
2023-04-11T21:55:21.923Z,101615.66
2023-04-11T21:57:50.161Z,101610.66
2023-04-11T22:00:19.065Z,101613.03
2023-04-11T22:02:47.632Z,101618.53
2023-04-11T22:05:18.337Z,101612.75
2023-04-11T22:07:49.503Z,101606.53
2023-04-11T22:10:24.039Z,101605.97
2023-04-11T22:12:55.185Z,101597.13
2023-04-11T22:15:24.883Z,101595.44
2023-04-11T22:17:55.176Z,101599.28
2023-04-11T22:20:23.432Z,101603.56
2023-04-11T22:22:51.637Z,101603.53
2023-04-11T22:25:23.147Z,101600.56
2023-04-11T22:27:55.066Z,101596.53
2023-04-11T22:30:24.434Z,101596.00
2023-04-11T22:32:54.847Z,101590.41
2023-04-11T22:35:26.716Z,101597.03
2023-04-11T22:38:00.006Z,101586.16
2023-04-11T22:40:28.362Z,101584.69
2023-04-11T22:42:56.663Z,101574.78
2023-04-11T22:45:25.141Z,101579.66
2023-04-11T22:47:55.168Z,101585.22
2023-04-11T22:50:23.520Z,101583.38
2023-04-11T22:52:51.816Z,101581.41
2023-04-11T22:55:20.910Z,101576.81
2023-04-11T22:57:49.442Z,101582.13
2023-04-11T23:00:19.998Z,101574.81
2023-04-11T23:02:48.636Z,101576.91
2023-04-11T23:05:17.717Z,101571.69
2023-04-11T23:07:46.397Z,101568.69
2023-04-11T23:10:18.158Z,101569.44
2023-04-11T23:12:46.631Z,101562.97
2023-04-11T23:15:16.283Z,101563.56
2023-04-11T23:17:44.672Z,101559.16
2023-04-11T23:20:13.996Z,101557.91
2023-04-11T23:22:44.622Z,101545.69
2023-04-11T23:25:15.943Z,101568.13
2023-04-11T23:27:45.805Z,101550.91
2023-04-11T23:30:15.212Z,101551.31
2023-04-11T23:32:43.825Z,101553.66
2023-04-11T23:35:12.664Z,101542.50
2023-04-11T23:37:41.740Z,101543.53
2023-04-11T23:40:14.637Z,101540.41
2023-04-11T23:42:43.275Z,101542.75
2023-04-11T23:45:12.633Z,101539.00
2023-04-11T23:47:40.982Z,101545.47
2023-04-11T23:50:10.250Z,101547.13
2023-04-11T23:52:38.483Z,101548.38
2023-04-11T23:55:08.194Z,101549.19
2023-04-11T23:57:36.492Z,101549.31
